sensor_id;sensor_type;location;lat;lon;timestamp;P1;durP1;ratioP1;P2;durP2;ratioP2
12774;SDS011;6451;42.630;23.382;2023-01-31T00:01:44;32.57;;;18.30;;
12774;SDS011;6451;42.630;23.382;2023-01-31T00:04:43;32.50;;;17.60;;
12774;SDS011;6451;42.630;23.382;2023-01-31T00:07:17;34.63;;;18.73;;
12774;SDS011;6451;42.630;23.382;2023-01-31T00:09:49;36.87;;;19.60;;
12774;SDS011;6451;42.630;23.382;2023-01-31T00:12:39;31.43;;;18.60;;
12774;SDS011;6451;42.630;23.382;2023-01-31T00:15:29;35.03;;;20.40;;
12774;SDS011;6451;42.630;23.382;2023-01-31T00:18:30;36.67;;;20.57;;
12774;SDS011;6451;42.630;23.382;2023-01-31T00:21:07;37.50;;;21.27;;
12774;SDS011;6451;42.630;23.382;2023-01-31T00:23:49;33.63;;;20.33;;
12774;SDS011;6451;42.630;23.382;2023-01-31T00:26:34;35.60;;;18.67;;
12774;SDS011;6451;42.630;23.382;2023-01-31T00:29:33;34.40;;;18.97;;
12774;SDS011;6451;42.630;23.382;2023-01-31T00:32:13;29.63;;;16.90;;
12774;SDS011;6451;42.630;23.382;2023-01-31T00:34:56;29.33;;;16.43;;
12774;SDS011;6451;42.630;23.382;2023-01-31T00:37:33;31.33;;;18.13;;
12774;SDS011;6451;42.630;23.382;2023-01-31T00:40:04;30.87;;;18.27;;
12774;SDS011;6451;42.630;23.382;2023-01-31T00:42:54;30.00;;;17.10;;
12774;SDS011;6451;42.630;23.382;2023-01-31T00:45:46;30.27;;;17.67;;
12774;SDS011;6451;42.630;23.382;2023-01-31T00:48:14;32.73;;;17.60;;
12774;SDS011;6451;42.630;23.382;2023-01-31T00:50:42;29.97;;;17.30;;
12774;SDS011;6451;42.630;23.382;2023-01-31T00:53:09;30.13;;;18.00;;
12774;SDS011;6451;42.630;23.382;2023-01-31T00:55:36;31.50;;;17.90;;
12774;SDS011;6451;42.630;23.382;2023-01-31T00:58:03;31.97;;;18.90;;
12774;SDS011;6451;42.630;23.382;2023-01-31T01:00:30;29.23;;;18.27;;
12774;SDS011;6451;42.630;23.382;2023-01-31T01:02:57;32.80;;;18.57;;
12774;SDS011;6451;42.630;23.382;2023-01-31T01:05:24;30.57;;;17.43;;
12774;SDS011;6451;42.630;23.382;2023-01-31T01:07:52;32.40;;;18.37;;
12774;SDS011;6451;42.630;23.382;2023-01-31T01:10:19;32.23;;;18.03;;
12774;SDS011;6451;42.630;23.382;2023-01-31T01:12:46;30.97;;;18.03;;
12774;SDS011;6451;42.630;23.382;2023-01-31T01:15:12;32.07;;;17.83;;
12774;SDS011;6451;42.630;23.382;2023-01-31T01:17:39;28.30;;;16.57;;
12774;SDS011;6451;42.630;23.382;2023-01-31T01:20:07;28.43;;;17.43;;
12774;SDS011;6451;42.630;23.382;2023-01-31T01:22:35;26.67;;;16.53;;
12774;SDS011;6451;42.630;23.382;2023-01-31T01:25:04;24.70;;;15.87;;
12774;SDS011;6451;42.630;23.382;2023-01-31T01:27:32;30.10;;;16.67;;
12774;SDS011;6451;42.630;23.382;2023-01-31T01:29:58;28.57;;;16.63;;
12774;SDS011;6451;42.630;23.382;2023-01-31T01:32:26;29.20;;;15.13;;
12774;SDS011;6451;42.630;23.382;2023-01-31T01:34:53;27.67;;;15.20;;
12774;SDS011;6451;42.630;23.382;2023-01-31T01:37:20;24.90;;;15.67;;
12774;SDS011;6451;42.630;23.382;2023-01-31T01:39:47;24.10;;;14.43;;
12774;SDS011;6451;42.630;23.382;2023-01-31T01:42:16;21.93;;;12.70;;
12774;SDS011;6451;42.630;23.382;2023-01-31T01:44:46;19.90;;;11.80;;
12774;SDS011;6451;42.630;23.382;2023-01-31T01:47:19;15.47;;;9.67;;
12774;SDS011;6451;42.630;23.382;2023-01-31T01:49:55;16.10;;;9.50;;
12774;SDS011;6451;42.630;23.382;2023-01-31T01:52:25;15.27;;;8.10;;
12774;SDS011;6451;42.630;23.382;2023-01-31T01:54:55;12.90;;;6.83;;
12774;SDS011;6451;42.630;23.382;2023-01-31T01:57:27;11.60;;;6.00;;
12774;SDS011;6451;42.630;23.382;2023-01-31T02:00:02;8.13;;;5.30;;
12774;SDS011;6451;42.630;23.382;2023-01-31T02:02:34;8.07;;;4.83;;
12774;SDS011;6451;42.630;23.382;2023-01-31T02:05:02;7.57;;;4.33;;
12774;SDS011;6451;42.630;23.382;2023-01-31T02:07:30;7.47;;;4.90;;
12774;SDS011;6451;42.630;23.382;2023-01-31T02:09:59;6.10;;;4.43;;
12774;SDS011;6451;42.630;23.382;2023-01-31T02:12:30;6.53;;;4.23;;
12774;SDS011;6451;42.630;23.382;2023-01-31T02:14:58;6.47;;;3.93;;
12774;SDS011;6451;42.630;23.382;2023-01-31T02:17:25;5.57;;;3.87;;
12774;SDS011;6451;42.630;23.382;2023-01-31T02:19:57;5.53;;;3.87;;
12774;SDS011;6451;42.630;23.382;2023-01-31T02:22:37;5.40;;;3.57;;
12774;SDS011;6451;42.630;23.382;2023-01-31T02:25:23;6.47;;;3.80;;
12774;SDS011;6451;42.630;23.382;2023-01-31T02:34:15;7.03;;;4.50;;
12774;SDS011;6451;42.630;23.382;2023-01-31T02:36:54;8.73;;;4.77;;
12774;SDS011;6451;42.630;23.382;2023-01-31T02:39:34;6.77;;;4.17;;
12774;SDS011;6451;42.630;23.382;2023-01-31T02:42:10;7.47;;;4.60;;
12774;SDS011;6451;42.630;23.382;2023-01-31T02:44:48;6.57;;;4.60;;
12774;SDS011;6451;42.630;23.382;2023-01-31T02:47:31;6.27;;;4.20;;
12774;SDS011;6451;42.630;23.382;2023-01-31T02:50:10;8.60;;;5.17;;
12774;SDS011;6451;42.630;23.382;2023-01-31T02:52:42;8.77;;;5.10;;
12774;SDS011;6451;42.630;23.382;2023-01-31T02:55:14;8.97;;;5.00;;
12774;SDS011;6451;42.630;23.382;2023-01-31T02:58:04;7.40;;;4.70;;
12774;SDS011;6451;42.630;23.382;2023-01-31T03:00:35;9.30;;;4.90;;
12774;SDS011;6451;42.630;23.382;2023-01-31T03:03:05;9.90;;;4.83;;
12774;SDS011;6451;42.630;23.382;2023-01-31T03:05:40;9.57;;;4.70;;
12774;SDS011;6451;42.630;23.382;2023-01-31T03:08:08;8.70;;;5.30;;
12774;SDS011;6451;42.630;23.382;2023-01-31T03:10:49;6.50;;;4.77;;
12774;SDS011;6451;42.630;23.382;2023-01-31T03:13:29;8.27;;;4.97;;
12774;SDS011;6451;42.630;23.382;2023-01-31T03:16:12;8.53;;;5.20;;
12774;SDS011;6451;42.630;23.382;2023-01-31T03:19:04;7.57;;;5.20;;
12774;SDS011;6451;42.630;23.382;2023-01-31T03:21:40;8.63;;;4.80;;
12774;SDS011;6451;42.630;23.382;2023-01-31T03:24:12;7.87;;;5.10;;
12774;SDS011;6451;42.630;23.382;2023-01-31T03:26:42;6.97;;;4.40;;
12774;SDS011;6451;42.630;23.382;2023-01-31T03:29:10;11.57;;;6.03;;
12774;SDS011;6451;42.630;23.382;2023-01-31T03:31:41;10.33;;;6.20;;
12774;SDS011;6451;42.630;23.382;2023-01-31T03:34:12;7.63;;;5.20;;
12774;SDS011;6451;42.630;23.382;2023-01-31T03:36:45;9.20;;;5.60;;
12774;SDS011;6451;42.630;23.382;2023-01-31T03:39:22;10.00;;;6.33;;
12774;SDS011;6451;42.630;23.382;2023-01-31T03:41:56;8.93;;;5.47;;
12774;SDS011;6451;42.630;23.382;2023-01-31T03:44:34;8.10;;;5.53;;
12774;SDS011;6451;42.630;23.382;2023-01-31T03:47:10;9.30;;;5.90;;
12774;SDS011;6451;42.630;23.382;2023-01-31T03:49:42;9.43;;;6.70;;
12774;SDS011;6451;42.630;23.382;2023-01-31T03:52:15;11.77;;;7.00;;
12774;SDS011;6451;42.630;23.382;2023-01-31T03:54:49;10.13;;;6.83;;
12774;SDS011;6451;42.630;23.382;2023-01-31T03:57:23;10.17;;;6.87;;
12774;SDS011;6451;42.630;23.382;2023-01-31T03:59:56;11.73;;;7.00;;
12774;SDS011;6451;42.630;23.382;2023-01-31T04:02:26;10.37;;;6.50;;
12774;SDS011;6451;42.630;23.382;2023-01-31T04:04:59;10.77;;;7.13;;
12774;SDS011;6451;42.630;23.382;2023-01-31T04:07:33;11.17;;;7.03;;
12774;SDS011;6451;42.630;23.382;2023-01-31T04:10:01;11.47;;;7.97;;
12774;SDS011;6451;42.630;23.382;2023-01-31T04:12:33;12.67;;;7.67;;
12774;SDS011;6451;42.630;23.382;2023-01-31T04:15:01;10.97;;;7.67;;
12774;SDS011;6451;42.630;23.382;2023-01-31T04:17:28;12.40;;;7.50;;
12774;SDS011;6451;42.630;23.382;2023-01-31T04:19:55;10.63;;;6.23;;
12774;SDS011;6451;42.630;23.382;2023-01-31T04:22:21;11.23;;;7.60;;
12774;SDS011;6451;42.630;23.382;2023-01-31T04:24:50;11.53;;;6.77;;
12774;SDS011;6451;42.630;23.382;2023-01-31T04:27:17;12.87;;;7.40;;
12774;SDS011;6451;42.630;23.382;2023-01-31T04:29:43;13.47;;;8.20;;
12774;SDS011;6451;42.630;23.382;2023-01-31T04:32:10;11.20;;;6.73;;
12774;SDS011;6451;42.630;23.382;2023-01-31T04:34:37;11.53;;;7.77;;
12774;SDS011;6451;42.630;23.382;2023-01-31T04:37:04;12.93;;;7.90;;
12774;SDS011;6451;42.630;23.382;2023-01-31T04:39:32;9.90;;;6.33;;
12774;SDS011;6451;42.630;23.382;2023-01-31T04:42:00;13.03;;;8.07;;
12774;SDS011;6451;42.630;23.382;2023-01-31T04:44:27;12.17;;;8.53;;
12774;SDS011;6451;42.630;23.382;2023-01-31T04:46:54;11.40;;;6.97;;
12774;SDS011;6451;42.630;23.382;2023-01-31T04:49:22;9.90;;;6.80;;
12774;SDS011;6451;42.630;23.382;2023-01-31T04:51:49;10.20;;;6.43;;
12774;SDS011;6451;42.630;23.382;2023-01-31T04:54:16;14.60;;;8.07;;
12774;SDS011;6451;42.630;23.382;2023-01-31T04:56:44;13.53;;;8.53;;
12774;SDS011;6451;42.630;23.382;2023-01-31T04:59:12;10.97;;;7.63;;
12774;SDS011;6451;42.630;23.382;2023-01-31T05:01:39;14.50;;;8.40;;
12774;SDS011;6451;42.630;23.382;2023-01-31T05:04:07;13.73;;;8.47;;
12774;SDS011;6451;42.630;23.382;2023-01-31T05:06:35;14.13;;;8.47;;
12774;SDS011;6451;42.630;23.382;2023-01-31T05:09:02;11.67;;;6.83;;
12774;SDS011;6451;42.630;23.382;2023-01-31T05:11:29;12.93;;;7.83;;
12774;SDS011;6451;42.630;23.382;2023-01-31T05:13:55;12.17;;;7.30;;
12774;SDS011;6451;42.630;23.382;2023-01-31T05:16:24;13.17;;;8.00;;
12774;SDS011;6451;42.630;23.382;2023-01-31T05:18:50;11.13;;;7.43;;
12774;SDS011;6451;42.630;23.382;2023-01-31T05:21:17;11.90;;;6.47;;
12774;SDS011;6451;42.630;23.382;2023-01-31T05:23:44;11.10;;;6.93;;
12774;SDS011;6451;42.630;23.382;2023-01-31T05:26:11;12.37;;;7.37;;
12774;SDS011;6451;42.630;23.382;2023-01-31T05:28:38;11.33;;;6.73;;
12774;SDS011;6451;42.630;23.382;2023-01-31T05:31:06;11.70;;;5.90;;
12774;SDS011;6451;42.630;23.382;2023-01-31T05:33:35;10.27;;;5.53;;
12774;SDS011;6451;42.630;23.382;2023-01-31T05:36:02;10.60;;;7.37;;
12774;SDS011;6451;42.630;23.382;2023-01-31T05:38:29;11.70;;;7.27;;
12774;SDS011;6451;42.630;23.382;2023-01-31T05:40:56;10.20;;;6.57;;
12774;SDS011;6451;42.630;23.382;2023-01-31T05:43:22;10.27;;;6.67;;
12774;SDS011;6451;42.630;23.382;2023-01-31T05:45:50;12.87;;;7.47;;
12774;SDS011;6451;42.630;23.382;2023-01-31T05:48:17;12.23;;;7.40;;
12774;SDS011;6451;42.630;23.382;2023-01-31T05:50:45;12.00;;;7.80;;
12774;SDS011;6451;42.630;23.382;2023-01-31T05:53:14;10.27;;;6.53;;
12774;SDS011;6451;42.630;23.382;2023-01-31T05:55:41;9.27;;;6.30;;
12774;SDS011;6451;42.630;23.382;2023-01-31T05:58:08;11.70;;;6.90;;
12774;SDS011;6451;42.630;23.382;2023-01-31T06:00:35;9.60;;;5.70;;
12774;SDS011;6451;42.630;23.382;2023-01-31T06:03:02;10.73;;;7.50;;
12774;SDS011;6451;42.630;23.382;2023-01-31T06:05:29;9.13;;;5.70;;
12774;SDS011;6451;42.630;23.382;2023-01-31T06:07:57;11.13;;;6.83;;
12774;SDS011;6451;42.630;23.382;2023-01-31T06:10:24;9.20;;;6.50;;
12774;SDS011;6451;42.630;23.382;2023-01-31T06:12:52;11.53;;;6.80;;
12774;SDS011;6451;42.630;23.382;2023-01-31T06:15:19;10.40;;;6.93;;
12774;SDS011;6451;42.630;23.382;2023-01-31T06:17:46;9.33;;;6.10;;
12774;SDS011;6451;42.630;23.382;2023-01-31T06:20:16;11.13;;;6.30;;
12774;SDS011;6451;42.630;23.382;2023-01-31T06:22:48;8.50;;;6.40;;
12774;SDS011;6451;42.630;23.382;2023-01-31T06:25:16;9.63;;;5.73;;
12774;SDS011;6451;42.630;23.382;2023-01-31T06:27:43;12.60;;;7.07;;
12774;SDS011;6451;42.630;23.382;2023-01-31T06:30:10;10.80;;;6.50;;
12774;SDS011;6451;42.630;23.382;2023-01-31T06:32:39;11.53;;;6.73;;
12774;SDS011;6451;42.630;23.382;2023-01-31T06:35:06;12.27;;;6.80;;
12774;SDS011;6451;42.630;23.382;2023-01-31T06:37:33;11.33;;;6.53;;
12774;SDS011;6451;42.630;23.382;2023-01-31T06:40:00;9.27;;;6.73;;
12774;SDS011;6451;42.630;23.382;2023-01-31T06:42:28;11.00;;;7.47;;
12774;SDS011;6451;42.630;23.382;2023-01-31T06:44:56;14.10;;;7.73;;
12774;SDS011;6451;42.630;23.382;2023-01-31T06:47:23;11.73;;;6.67;;
12774;SDS011;6451;42.630;23.382;2023-01-31T06:49:49;11.60;;;7.27;;
12774;SDS011;6451;42.630;23.382;2023-01-31T06:52:16;12.63;;;6.87;;
12774;SDS011;6451;42.630;23.382;2023-01-31T06:54:43;10.53;;;6.60;;
12774;SDS011;6451;42.630;23.382;2023-01-31T06:57:10;11.87;;;6.73;;
12774;SDS011;6451;42.630;23.382;2023-01-31T06:59:39;11.03;;;7.60;;
12774;SDS011;6451;42.630;23.382;2023-01-31T07:02:06;11.77;;;7.37;;
12774;SDS011;6451;42.630;23.382;2023-01-31T07:04:34;13.33;;;7.87;;
12774;SDS011;6451;42.630;23.382;2023-01-31T07:07:01;15.77;;;8.30;;
12774;SDS011;6451;42.630;23.382;2023-01-31T07:09:29;12.80;;;8.27;;
12774;SDS011;6451;42.630;23.382;2023-01-31T07:11:57;12.33;;;7.17;;
12774;SDS011;6451;42.630;23.382;2023-01-31T07:14:26;13.10;;;7.93;;
12774;SDS011;6451;42.630;23.382;2023-01-31T07:16:57;12.17;;;7.10;;
12774;SDS011;6451;42.630;23.382;2023-01-31T07:19:24;10.37;;;7.27;;
12774;SDS011;6451;42.630;23.382;2023-01-31T07:21:51;11.50;;;7.30;;
12774;SDS011;6451;42.630;23.382;2023-01-31T07:24:20;10.27;;;6.43;;
12774;SDS011;6451;42.630;23.382;2023-01-31T07:26:47;13.70;;;7.77;;
12774;SDS011;6451;42.630;23.382;2023-01-31T07:29:17;11.13;;;6.60;;
12774;SDS011;6451;42.630;23.382;2023-01-31T07:31:44;11.17;;;7.33;;
12774;SDS011;6451;42.630;23.382;2023-01-31T07:34:13;11.23;;;7.40;;
12774;SDS011;6451;42.630;23.382;2023-01-31T07:36:40;10.67;;;7.27;;
12774;SDS011;6451;42.630;23.382;2023-01-31T07:39:07;10.07;;;7.17;;
12774;SDS011;6451;42.630;23.382;2023-01-31T07:41:34;12.57;;;7.37;;
12774;SDS011;6451;42.630;23.382;2023-01-31T07:44:00;12.97;;;7.80;;
12774;SDS011;6451;42.630;23.382;2023-01-31T07:46:27;16.30;;;7.47;;
12774;SDS011;6451;42.630;23.382;2023-01-31T07:48:54;11.87;;;7.60;;
12774;SDS011;6451;42.630;23.382;2023-01-31T07:51:22;12.10;;;8.23;;
12774;SDS011;6451;42.630;23.382;2023-01-31T07:53:49;10.57;;;7.43;;
12774;SDS011;6451;42.630;23.382;2023-01-31T07:56:18;14.30;;;7.43;;
12774;SDS011;6451;42.630;23.382;2023-01-31T07:58:49;11.20;;;7.00;;
12774;SDS011;6451;42.630;23.382;2023-01-31T08:01:16;11.07;;;7.30;;
12774;SDS011;6451;42.630;23.382;2023-01-31T08:04:02;12.73;;;7.80;;
12774;SDS011;6451;42.630;23.382;2023-01-31T08:06:30;11.27;;;7.77;;
12774;SDS011;6451;42.630;23.382;2023-01-31T08:08:57;10.67;;;8.20;;
12774;SDS011;6451;42.630;23.382;2023-01-31T08:11:25;11.13;;;7.47;;
12774;SDS011;6451;42.630;23.382;2023-01-31T08:13:52;9.43;;;6.63;;
12774;SDS011;6451;42.630;23.382;2023-01-31T08:16:20;11.67;;;7.30;;
12774;SDS011;6451;42.630;23.382;2023-01-31T08:18:47;10.90;;;8.10;;
12774;SDS011;6451;42.630;23.382;2023-01-31T08:21:14;9.60;;;7.10;;
12774;SDS011;6451;42.630;23.382;2023-01-31T08:23:43;10.43;;;7.90;;
12774;SDS011;6451;42.630;23.382;2023-01-31T08:26:11;10.93;;;7.17;;
12774;SDS011;6451;42.630;23.382;2023-01-31T08:28:39;9.93;;;7.17;;
12774;SDS011;6451;42.630;23.382;2023-01-31T08:31:10;11.83;;;7.33;;
12774;SDS011;6451;42.630;23.382;2023-01-31T08:33:38;10.70;;;7.30;;
12774;SDS011;6451;42.630;23.382;2023-01-31T08:36:09;12.03;;;7.10;;
12774;SDS011;6451;42.630;23.382;2023-01-31T08:38:36;9.13;;;7.00;;
12774;SDS011;6451;42.630;23.382;2023-01-31T08:41:05;8.60;;;6.33;;
12774;SDS011;6451;42.630;23.382;2023-01-31T08:43:31;10.83;;;6.33;;
12774;SDS011;6451;42.630;23.382;2023-01-31T08:45:58;9.73;;;6.03;;
12774;SDS011;6451;42.630;23.382;2023-01-31T08:48:25;8.77;;;6.23;;
12774;SDS011;6451;42.630;23.382;2023-01-31T08:50:52;8.17;;;6.37;;
12774;SDS011;6451;42.630;23.382;2023-01-31T08:53:19;8.60;;;6.40;;
12774;SDS011;6451;42.630;23.382;2023-01-31T08:55:46;9.53;;;6.17;;
12774;SDS011;6451;42.630;23.382;2023-01-31T08:58:14;6.93;;;5.20;;
12774;SDS011;6451;42.630;23.382;2023-01-31T09:00:41;6.80;;;4.87;;
12774;SDS011;6451;42.630;23.382;2023-01-31T09:03:12;7.70;;;5.40;;
12774;SDS011;6451;42.630;23.382;2023-01-31T09:05:42;7.50;;;5.60;;
12774;SDS011;6451;42.630;23.382;2023-01-31T09:08:10;8.13;;;6.10;;
12774;SDS011;6451;42.630;23.382;2023-01-31T09:10:37;10.10;;;5.87;;
12774;SDS011;6451;42.630;23.382;2023-01-31T09:13:04;8.63;;;5.83;;
12774;SDS011;6451;42.630;23.382;2023-01-31T09:15:33;7.37;;;5.33;;
12774;SDS011;6451;42.630;23.382;2023-01-31T09:17:59;8.77;;;4.87;;
12774;SDS011;6451;42.630;23.382;2023-01-31T09:20:28;7.97;;;5.03;;
12774;SDS011;6451;42.630;23.382;2023-01-31T09:22:55;8.03;;;5.80;;
12774;SDS011;6451;42.630;23.382;2023-01-31T09:25:22;6.87;;;5.00;;
12774;SDS011;6451;42.630;23.382;2023-01-31T09:27:50;7.53;;;5.10;;
12774;SDS011;6451;42.630;23.382;2023-01-31T09:30:18;8.07;;;5.50;;
12774;SDS011;6451;42.630;23.382;2023-01-31T09:32:47;8.20;;;5.70;;
12774;SDS011;6451;42.630;23.382;2023-01-31T09:35:14;8.67;;;5.60;;
12774;SDS011;6451;42.630;23.382;2023-01-31T09:37:43;7.27;;;5.30;;
12774;SDS011;6451;42.630;23.382;2023-01-31T09:40:11;6.20;;;4.73;;
12774;SDS011;6451;42.630;23.382;2023-01-31T09:42:46;10.17;;;5.13;;
12774;SDS011;6451;42.630;23.382;2023-01-31T09:45:17;7.83;;;4.73;;
12774;SDS011;6451;42.630;23.382;2023-01-31T09:47:55;5.70;;;4.40;;
12774;SDS011;6451;42.630;23.382;2023-01-31T09:50:27;6.23;;;4.17;;
12774;SDS011;6451;42.630;23.382;2023-01-31T09:52:59;5.43;;;4.70;;
12774;SDS011;6451;42.630;23.382;2023-01-31T09:55:29;5.73;;;4.57;;
12774;SDS011;6451;42.630;23.382;2023-01-31T09:58:05;6.07;;;4.70;;
12774;SDS011;6451;42.630;23.382;2023-01-31T10:00:42;5.50;;;4.40;;
12774;SDS011;6451;42.630;23.382;2023-01-31T10:03:31;6.63;;;4.93;;
12774;SDS011;6451;42.630;23.382;2023-01-31T10:06:12;6.00;;;4.40;;
12774;SDS011;6451;42.630;23.382;2023-01-31T10:08:46;6.30;;;3.80;;
12774;SDS011;6451;42.630;23.382;2023-01-31T10:11:17;4.40;;;3.97;;
12774;SDS011;6451;42.630;23.382;2023-01-31T10:13:57;9.33;;;3.90;;
12774;SDS011;6451;42.630;23.382;2023-01-31T10:16:30;4.53;;;3.90;;
12774;SDS011;6451;42.630;23.382;2023-01-31T10:19:03;5.23;;;4.20;;
12774;SDS011;6451;42.630;23.382;2023-01-31T10:21:41;5.03;;;3.80;;
12774;SDS011;6451;42.630;23.382;2023-01-31T10:24:12;5.07;;;3.33;;
12774;SDS011;6451;42.630;23.382;2023-01-31T10:26:46;5.00;;;3.87;;
12774;SDS011;6451;42.630;23.382;2023-01-31T10:29:16;4.13;;;3.60;;
12774;SDS011;6451;42.630;23.382;2023-01-31T10:31:48;7.53;;;4.90;;
12774;SDS011;6451;42.630;23.382;2023-01-31T10:34:22;5.60;;;3.70;;
12774;SDS011;6451;42.630;23.382;2023-01-31T10:36:54;6.23;;;4.40;;
12774;SDS011;6451;42.630;23.382;2023-01-31T10:39:28;4.70;;;3.73;;
12774;SDS011;6451;42.630;23.382;2023-01-31T10:42:10;4.83;;;3.70;;
12774;SDS011;6451;42.630;23.382;2023-01-31T10:44:46;6.83;;;3.57;;
12774;SDS011;6451;42.630;23.382;2023-01-31T10:47:21;4.30;;;3.80;;
12774;SDS011;6451;42.630;23.382;2023-01-31T10:49:58;3.77;;;3.37;;
12774;SDS011;6451;42.630;23.382;2023-01-31T10:52:34;4.67;;;3.50;;
12774;SDS011;6451;42.630;23.382;2023-01-31T10:55:36;3.77;;;2.73;;
12774;SDS011;6451;42.630;23.382;2023-01-31T10:58:15;3.97;;;3.20;;
12774;SDS011;6451;42.630;23.382;2023-01-31T11:00:44;4.73;;;3.90;;
12774;SDS011;6451;42.630;23.382;2023-01-31T11:03:12;4.50;;;3.53;;
12774;SDS011;6451;42.630;23.382;2023-01-31T11:05:43;4.67;;;3.73;;
12774;SDS011;6451;42.630;23.382;2023-01-31T11:08:20;5.97;;;4.27;;
12774;SDS011;6451;42.630;23.382;2023-01-31T11:10:52;5.30;;;3.50;;
12774;SDS011;6451;42.630;23.382;2023-01-31T11:13:21;5.33;;;4.03;;
12774;SDS011;6451;42.630;23.382;2023-01-31T11:15:49;5.23;;;3.50;;
12774;SDS011;6451;42.630;23.382;2023-01-31T11:18:24;4.60;;;4.03;;
12774;SDS011;6451;42.630;23.382;2023-01-31T11:20:55;4.87;;;4.10;;
12774;SDS011;6451;42.630;23.382;2023-01-31T11:23:25;3.90;;;3.50;;
12774;SDS011;6451;42.630;23.382;2023-01-31T11:25:55;4.17;;;3.40;;
12774;SDS011;6451;42.630;23.382;2023-01-31T11:28:23;4.30;;;3.83;;
12774;SDS011;6451;42.630;23.382;2023-01-31T11:30:58;5.70;;;4.13;;
12774;SDS011;6451;42.630;23.382;2023-01-31T11:33:36;4.40;;;4.00;;
12774;SDS011;6451;42.630;23.382;2023-01-31T11:36:12;7.00;;;3.43;;
12774;SDS011;6451;42.630;23.382;2023-01-31T11:38:40;4.10;;;3.53;;
12774;SDS011;6451;42.630;23.382;2023-01-31T11:41:30;4.73;;;3.87;;
12774;SDS011;6451;42.630;23.382;2023-01-31T11:44:05;5.27;;;4.03;;
12774;SDS011;6451;42.630;23.382;2023-01-31T11:46:41;5.10;;;3.80;;
12774;SDS011;6451;42.630;23.382;2023-01-31T11:49:10;4.20;;;3.57;;
12774;SDS011;6451;42.630;23.382;2023-01-31T11:51:41;6.00;;;4.70;;
12774;SDS011;6451;42.630;23.382;2023-01-31T11:54:10;5.73;;;4.87;;
12774;SDS011;6451;42.630;23.382;2023-01-31T11:56:44;4.33;;;3.80;;
12774;SDS011;6451;42.630;23.382;2023-01-31T11:59:12;4.93;;;4.43;;
12774;SDS011;6451;42.630;23.382;2023-01-31T12:01:44;5.73;;;4.27;;
12774;SDS011;6451;42.630;23.382;2023-01-31T12:04:14;4.43;;;3.93;;
12774;SDS011;6451;42.630;23.382;2023-01-31T12:06:53;5.00;;;4.50;;
12774;SDS011;6451;42.630;23.382;2023-01-31T12:09:23;8.67;;;4.23;;
12774;SDS011;6451;42.630;23.382;2023-01-31T12:11:52;4.23;;;3.83;;
12774;SDS011;6451;42.630;23.382;2023-01-31T12:14:21;5.70;;;4.60;;
12774;SDS011;6451;42.630;23.382;2023-01-31T12:16:52;5.80;;;4.40;;
12774;SDS011;6451;42.630;23.382;2023-01-31T12:19:28;7.07;;;5.57;;
12774;SDS011;6451;42.630;23.382;2023-01-31T12:22:08;6.07;;;5.20;;
12774;SDS011;6451;42.630;23.382;2023-01-31T12:24:40;6.47;;;5.10;;
12774;SDS011;6451;42.630;23.382;2023-01-31T12:27:17;5.10;;;4.57;;
12774;SDS011;6451;42.630;23.382;2023-01-31T12:30:02;5.23;;;4.00;;
12774;SDS011;6451;42.630;23.382;2023-01-31T12:32:44;5.33;;;4.67;;
12774;SDS011;6451;42.630;23.382;2023-01-31T12:35:26;5.50;;;4.50;;
12774;SDS011;6451;42.630;23.382;2023-01-31T12:38:05;11.63;;;4.83;;
12774;SDS011;6451;42.630;23.382;2023-01-31T12:40:42;5.60;;;4.90;;
12774;SDS011;6451;42.630;23.382;2023-01-31T12:43:20;5.57;;;4.57;;
12774;SDS011;6451;42.630;23.382;2023-01-31T12:46:10;4.90;;;3.87;;
12774;SDS011;6451;42.630;23.382;2023-01-31T12:51:54;5.60;;;4.53;;
12774;SDS011;6451;42.630;23.382;2023-01-31T12:54:36;5.67;;;5.07;;
12774;SDS011;6451;42.630;23.382;2023-01-31T12:57:16;5.93;;;4.50;;
12774;SDS011;6451;42.630;23.382;2023-01-31T12:59:55;4.60;;;4.10;;
12774;SDS011;6451;42.630;23.382;2023-01-31T13:02:43;6.07;;;4.23;;
12774;SDS011;6451;42.630;23.382;2023-01-31T13:05:23;4.70;;;4.17;;
12774;SDS011;6451;42.630;23.382;2023-01-31T13:07:54;7.77;;;5.30;;
12774;SDS011;6451;42.630;23.382;2023-01-31T13:10:32;6.00;;;4.23;;
12774;SDS011;6451;42.630;23.382;2023-01-31T13:13:03;5.10;;;4.60;;
12774;SDS011;6451;42.630;23.382;2023-01-31T13:15:37;6.53;;;4.87;;
12774;SDS011;6451;42.630;23.382;2023-01-31T13:18:09;4.07;;;3.67;;
12774;SDS011;6451;42.630;23.382;2023-01-31T13:20:40;4.50;;;3.90;;
12774;SDS011;6451;42.630;23.382;2023-01-31T13:23:12;7.67;;;3.90;;
12774;SDS011;6451;42.630;23.382;2023-01-31T13:25:47;4.00;;;3.60;;
12774;SDS011;6451;42.630;23.382;2023-01-31T13:28:17;4.40;;;3.83;;
12774;SDS011;6451;42.630;23.382;2023-01-31T13:30:49;4.27;;;3.87;;
12774;SDS011;6451;42.630;23.382;2023-01-31T13:33:23;5.17;;;3.93;;
12774;SDS011;6451;42.630;23.382;2023-01-31T13:35:59;5.03;;;3.77;;
12774;SDS011;6451;42.630;23.382;2023-01-31T13:38:33;4.80;;;3.63;;
12774;SDS011;6451;42.630;23.382;2023-01-31T13:41:07;4.43;;;4.03;;
12774;SDS011;6451;42.630;23.382;2023-01-31T13:43:38;4.47;;;4.03;;
12774;SDS011;6451;42.630;23.382;2023-01-31T13:46:11;4.80;;;4.10;;
12774;SDS011;6451;42.630;23.382;2023-01-31T13:48:44;4.93;;;4.07;;
12774;SDS011;6451;42.630;23.382;2023-01-31T13:51:17;6.23;;;4.50;;
12774;SDS011;6451;42.630;23.382;2023-01-31T13:53:49;5.50;;;5.00;;
12774;SDS011;6451;42.630;23.382;2023-01-31T13:56:22;5.73;;;4.47;;
12774;SDS011;6451;42.630;23.382;2023-01-31T13:58:53;5.97;;;4.87;;
12774;SDS011;6451;42.630;23.382;2023-01-31T14:01:22;5.40;;;4.90;;
12774;SDS011;6451;42.630;23.382;2023-01-31T14:06:55;4.70;;;4.20;;
12774;SDS011;6451;42.630;23.382;2023-01-31T14:09:41;4.90;;;3.90;;
12774;SDS011;6451;42.630;23.382;2023-01-31T14:12:30;5.63;;;4.67;;
12774;SDS011;6451;42.630;23.382;2023-01-31T14:15:00;5.63;;;3.90;;
12774;SDS011;6451;42.630;23.382;2023-01-31T14:17:58;9.60;;;4.17;;
12774;SDS011;6451;42.630;23.382;2023-01-31T14:20:28;8.67;;;4.33;;
12774;SDS011;6451;42.630;23.382;2023-01-31T14:25:55;5.70;;;4.60;;
12774;SDS011;6451;42.630;23.382;2023-01-31T14:28:23;6.20;;;4.77;;
12774;SDS011;6451;42.630;23.382;2023-01-31T14:30:51;6.13;;;4.43;;
12774;SDS011;6451;42.630;23.382;2023-01-31T14:33:23;7.53;;;4.47;;
12774;SDS011;6451;42.630;23.382;2023-01-31T14:36:03;6.93;;;5.20;;
12774;SDS011;6451;42.630;23.382;2023-01-31T14:42:27;6.30;;;4.70;;
12774;SDS011;6451;42.630;23.382;2023-01-31T14:45:34;5.53;;;4.37;;
12774;SDS011;6451;42.630;23.382;2023-01-31T14:48:21;6.47;;;4.57;;
12774;SDS011;6451;42.630;23.382;2023-01-31T14:51:02;5.07;;;4.20;;
12774;SDS011;6451;42.630;23.382;2023-01-31T14:59:43;4.60;;;3.77;;
12774;SDS011;6451;42.630;23.382;2023-01-31T15:02:39;4.23;;;3.70;;
12774;SDS011;6451;42.630;23.382;2023-01-31T15:05:14;3.87;;;3.47;;
12774;SDS011;6451;42.630;23.382;2023-01-31T15:10:53;5.93;;;3.83;;
12774;SDS011;6451;42.630;23.382;2023-01-31T15:13:34;5.30;;;4.50;;
12774;SDS011;6451;42.630;23.382;2023-01-31T15:16:09;9.20;;;4.30;;
12774;SDS011;6451;42.630;23.382;2023-01-31T15:18:47;5.27;;;4.50;;
12774;SDS011;6451;42.630;23.382;2023-01-31T15:21:19;8.50;;;5.50;;
12774;SDS011;6451;42.630;23.382;2023-01-31T15:23:49;7.37;;;5.30;;
12774;SDS011;6451;42.630;23.382;2023-01-31T15:26:18;8.23;;;5.23;;
12774;SDS011;6451;42.630;23.382;2023-01-31T15:28:45;8.60;;;5.00;;
12774;SDS011;6451;42.630;23.382;2023-01-31T15:31:15;5.40;;;4.60;;
12774;SDS011;6451;42.630;23.382;2023-01-31T15:33:48;6.30;;;5.07;;
12774;SDS011;6451;42.630;23.382;2023-01-31T15:36:22;7.40;;;4.83;;
12774;SDS011;6451;42.630;23.382;2023-01-31T15:38:54;7.73;;;5.27;;